Strathpeffer, United Kingdom
Current Conditions -  °F | °C
As of 4:20 PM on Friday 24 Oct 2014 (Local Time) from EGPE Reporting Station
Few Clouds Few Clouds  
Wind Chill: 50°   Ceiling: Unl
Heat Index: 50°   Visibility: 6mi
Dew Point: 45°   Wind: 15mph
Humidity: 82%   Direction: 200°SSW
Pressure: 29.59"   Gusts: NA
Location:  57.6°N, 4.53°W
Report Text: EGPE 241520Z 20013KT 9999 FEW015 10/07 Q1002
Loading
Personal Weather Stations






























Interactive Weather Map
Tropical Storm Tracking
New forecast layout! Learn more

10-Day Weather Forecast

Advertisements
Track Severe Weather on mobile